createdAt,value
2023-04-24T00:01:53.252Z,17.67
2023-04-24T00:04:21.083Z,17.69
2023-04-24T00:06:54.878Z,17.75
2023-04-24T00:09:22.566Z,17.70
2023-04-24T00:11:49.925Z,17.69
2023-04-24T00:14:17.421Z,17.64
2023-04-24T00:16:45.133Z,17.55
2023-04-24T00:19:13.745Z,17.50
2023-04-24T00:21:42.617Z,17.63
2023-04-24T00:24:10.410Z,17.72
2023-04-24T00:26:38.041Z,17.74
2023-04-24T00:29:05.728Z,17.78
2023-04-24T00:31:35.882Z,17.61
2023-04-24T00:34:04.206Z,17.72
2023-04-24T00:36:31.980Z,17.70
2023-04-24T00:38:59.846Z,17.62
2023-04-24T00:41:27.657Z,17.62
2023-04-24T00:43:55.070Z,17.59
2023-04-24T00:46:23.024Z,17.60
2023-04-24T00:48:51.292Z,17.76
2023-04-24T00:51:18.987Z,17.81
2023-04-24T00:53:46.753Z,17.81
2023-04-24T00:56:14.379Z,17.87
2023-04-24T00:58:42.750Z,17.81
2023-04-24T01:01:12.579Z,17.84
2023-04-24T01:03:41.665Z,17.84
2023-04-24T01:06:10.559Z,17.83
2023-04-24T01:08:39.174Z,17.66
2023-04-24T01:11:06.906Z,17.71
2023-04-24T01:13:34.923Z,17.71
2023-04-24T01:16:04.224Z,17.72
2023-04-24T01:18:33.259Z,17.72
2023-04-24T01:21:05.092Z,17.75
2023-04-24T01:23:32.933Z,17.72
2023-04-24T01:26:00.972Z,17.52
2023-04-24T01:28:28.482Z,17.44
2023-04-24T01:30:56.946Z,17.52
2023-04-24T01:33:24.410Z,17.57
2023-04-24T01:35:52.162Z,17.67
2023-04-24T01:38:19.903Z,17.69
2023-04-24T01:40:47.524Z,17.66
2023-04-24T01:43:15.429Z,17.56
2023-04-24T01:45:43.208Z,17.69
2023-04-24T01:48:10.877Z,17.71
2023-04-24T01:50:38.258Z,17.68
2023-04-24T01:53:06.441Z,17.69
2023-04-24T01:55:34.403Z,17.71
2023-04-24T01:58:03.175Z,17.65
2023-04-24T02:00:31.188Z,17.36
2023-04-24T02:02:59.076Z,17.41
2023-04-24T02:05:27.178Z,17.27
2023-04-24T02:07:54.842Z,17.27
2023-04-24T02:10:22.916Z,17.25
2023-04-24T02:12:50.628Z,17.34
2023-04-24T02:15:18.895Z,17.23
2023-04-24T02:17:46.376Z,17.23
2023-04-24T02:20:14.594Z,17.27
2023-04-24T02:22:42.096Z,17.40
2023-04-24T02:25:09.839Z,17.24
2023-04-24T02:27:37.560Z,17.34
2023-04-24T02:30:08.459Z,17.38
2023-04-24T02:32:35.887Z,17.32
2023-04-24T02:35:03.747Z,17.23
2023-04-24T02:37:31.446Z,17.15
2023-04-24T02:39:58.831Z,17.16
2023-04-24T02:42:26.743Z,17.24
2023-04-24T02:44:54.251Z,17.25
2023-04-24T02:47:21.747Z,17.33
2023-04-24T02:49:50.717Z,17.28
2023-04-24T02:52:18.235Z,17.18
2023-04-24T02:54:45.838Z,17.28
2023-04-24T02:57:13.575Z,17.33
2023-04-24T02:59:41.595Z,17.23
2023-04-24T03:02:09.114Z,17.13
2023-04-24T03:04:37.530Z,17.10
2023-04-24T03:07:05.543Z,17.13
2023-04-24T03:09:33.127Z,17.11
2023-04-24T03:12:01.392Z,17.22
2023-04-24T03:14:30.743Z,17.16
2023-04-24T03:16:58.348Z,17.19
2023-04-24T03:19:26.037Z,17.18
2023-04-24T03:21:54.259Z,17.28
2023-04-24T03:24:21.772Z,17.26
2023-04-24T03:26:49.618Z,17.14
2023-04-24T03:29:17.770Z,17.17
2023-04-24T03:31:45.434Z,17.22
2023-04-24T03:34:13.270Z,17.23
2023-04-24T03:36:40.801Z,17.16
2023-04-24T03:39:08.681Z,17.13
2023-04-24T03:41:36.488Z,17.19
2023-04-24T03:44:04.951Z,17.15
2023-04-24T03:46:32.387Z,17.03
2023-04-24T03:49:00.344Z,17.14
2023-04-24T03:51:29.013Z,17.00
2023-04-24T03:53:56.912Z,17.15
2023-04-24T03:56:25.107Z,16.93
2023-04-24T03:58:53.195Z,17.00
2023-04-24T04:01:21.793Z,16.92
2023-04-24T04:03:50.126Z,16.99
2023-04-24T04:06:19.217Z,17.05
2023-04-24T04:08:47.266Z,17.01
2023-04-24T04:11:15.203Z,17.06
2023-04-24T04:13:42.613Z,16.90
2023-04-24T04:16:10.311Z,16.90
2023-04-24T04:18:38.664Z,17.00
2023-04-24T04:21:06.618Z,17.06
2023-04-24T04:23:34.851Z,17.02
2023-04-24T04:26:04.301Z,17.00
2023-04-24T04:28:35.841Z,16.94
2023-04-24T04:31:03.511Z,16.88
2023-04-24T04:33:31.991Z,16.93
2023-04-24T04:35:59.441Z,17.08
2023-04-24T04:38:30.903Z,17.09
2023-04-24T04:40:58.612Z,16.90
2023-04-24T04:43:27.153Z,16.92
2023-04-24T04:45:57.084Z,16.93
2023-04-24T04:48:24.990Z,16.96
2023-04-24T04:50:52.749Z,17.10
2023-04-24T04:53:21.674Z,17.07
2023-04-24T04:55:49.100Z,17.04
2023-04-24T04:58:16.671Z,17.01
2023-04-24T05:00:45.124Z,17.02
2023-04-24T05:03:20.118Z,17.06
2023-04-24T05:05:49.415Z,17.13
2023-04-24T05:08:26.441Z,17.20
2023-04-24T05:10:56.391Z,17.27
2023-04-24T05:15:55.568Z,17.35
2023-04-24T05:18:23.625Z,17.39
2023-04-24T05:20:51.116Z,17.38
2023-04-24T05:23:19.112Z,17.33
2023-04-24T05:25:47.735Z,17.41
2023-04-24T05:28:16.357Z,17.44
2023-04-24T05:30:44.875Z,17.50
2023-04-24T05:33:13.328Z,17.46
2023-04-24T05:35:46.562Z,17.43
2023-04-24T05:38:14.910Z,17.51
2023-04-24T05:40:42.386Z,17.37
2023-04-24T05:43:09.831Z,17.45
2023-04-24T05:45:37.820Z,17.37
2023-04-24T05:48:05.577Z,17.47
2023-04-24T05:50:35.434Z,17.45
2023-04-24T05:53:05.099Z,17.57
2023-04-24T05:55:34.203Z,17.68
2023-04-24T05:58:02.346Z,17.83
2023-04-24T06:00:30.865Z,17.86
2023-04-24T06:03:00.064Z,17.83
2023-04-24T06:05:28.448Z,17.74
2023-04-24T06:07:55.892Z,17.78
2023-04-24T06:10:24.288Z,17.64
2023-04-24T06:12:51.748Z,17.74
2023-04-24T06:15:19.314Z,17.76
2023-04-24T06:17:47.596Z,17.61
2023-04-24T06:20:16.446Z,17.48
2023-04-24T06:22:43.874Z,17.65
2023-04-24T06:25:11.686Z,17.69
2023-04-24T06:27:39.481Z,17.67
2023-04-24T06:30:09.553Z,17.75
2023-04-24T06:32:37.258Z,17.79
2023-04-24T06:35:05.272Z,17.65
2023-04-24T06:37:33.347Z,17.75
2023-04-24T06:40:01.125Z,18.04
2023-04-24T06:42:28.649Z,17.94
2023-04-24T06:44:56.626Z,17.91
2023-04-24T06:47:24.393Z,18.11
2023-04-24T06:49:53.435Z,18.30
2023-04-24T06:52:20.927Z,18.35
2023-04-24T06:54:48.655Z,18.53
2023-04-24T06:57:17.251Z,18.56
2023-04-24T06:59:45.119Z,18.51
2023-04-24T07:02:12.999Z,18.67
2023-04-24T07:04:40.937Z,18.50
2023-04-24T07:07:10.537Z,18.49
2023-04-24T07:09:39.806Z,18.66
2023-04-24T07:12:08.439Z,18.66
2023-04-24T07:14:35.854Z,18.77
2023-04-24T07:17:04.727Z,18.77
2023-04-24T07:19:32.121Z,18.79
2023-04-24T07:21:59.667Z,18.70
2023-04-24T07:24:30.503Z,18.75
2023-04-24T07:26:58.100Z,18.70
2023-04-24T07:29:25.805Z,18.76
2023-04-24T07:31:55.104Z,18.78
2023-04-24T07:34:22.611Z,19.14
2023-04-24T07:36:50.000Z,19.26
2023-04-24T07:39:19.085Z,19.25
2023-04-24T07:41:46.451Z,19.35
2023-04-24T07:44:13.909Z,19.28
2023-04-24T07:46:41.777Z,19.49
2023-04-24T07:49:13.762Z,19.54
2023-04-24T07:51:42.610Z,19.76
2023-04-24T07:54:10.644Z,20.02
2023-04-24T07:56:40.279Z,20.00
2023-04-24T07:59:08.254Z,20.14
2023-04-24T08:01:35.965Z,20.00
2023-04-24T08:04:03.800Z,20.10
2023-04-24T08:06:32.905Z,20.26
2023-04-24T08:09:01.038Z,20.07
2023-04-24T08:11:28.826Z,20.07
2023-04-24T08:13:56.350Z,19.89
2023-04-24T08:16:25.221Z,20.01
2023-04-24T08:18:53.943Z,19.77
2023-04-24T08:21:21.769Z,19.82
2023-04-24T08:23:49.185Z,19.74
2023-04-24T08:26:17.753Z,19.82
2023-04-24T08:28:45.456Z,19.76
2023-04-24T08:31:12.933Z,19.68
2023-04-24T08:33:42.059Z,19.71
2023-04-24T08:36:09.534Z,19.74
2023-04-24T08:38:36.966Z,19.84
2023-04-24T08:41:05.977Z,20.03
2023-04-24T08:43:34.245Z,20.02
2023-04-24T08:46:02.224Z,20.19
2023-04-24T08:48:32.364Z,20.22
2023-04-24T08:51:00.333Z,20.45
2023-04-24T08:53:27.970Z,20.60
2023-04-24T08:55:56.944Z,20.80
2023-04-24T08:58:27.322Z,20.86
2023-04-24T09:00:59.505Z,20.94
2023-04-24T09:03:29.126Z,21.29
2023-04-24T09:05:56.947Z,21.41
2023-04-24T09:08:26.956Z,21.59
2023-04-24T09:10:54.689Z,21.50
2023-04-24T09:13:22.117Z,21.47
2023-04-24T09:15:49.531Z,21.48
2023-04-24T09:18:18.477Z,21.56
2023-04-24T09:21:02.748Z,21.54
2023-04-24T09:23:31.926Z,21.81
2023-04-24T09:26:01.310Z,21.84
2023-04-24T09:28:36.187Z,21.98
2023-04-24T09:31:07.861Z,21.91
2023-04-24T09:33:35.640Z,22.09
2023-04-24T09:36:03.782Z,22.03
2023-04-24T09:38:40.769Z,21.98
2023-04-24T09:41:09.304Z,21.87
2023-04-24T09:43:36.972Z,21.78
2023-04-24T09:46:08.679Z,21.96
2023-04-24T09:48:38.280Z,21.81
2023-04-24T09:51:12.301Z,21.67
2023-04-24T09:53:43.036Z,21.88
2023-04-24T09:56:13.455Z,21.98
2023-04-24T09:58:41.196Z,22.09
2023-04-24T10:01:08.739Z,22.13
2023-04-24T10:03:37.588Z,22.01
2023-04-24T10:06:10.248Z,22.00
2023-04-24T10:08:38.628Z,22.11
2023-04-24T10:11:07.262Z,22.07
2023-04-24T10:13:34.933Z,22.19
2023-04-24T10:16:03.094Z,22.24
2023-04-24T10:18:31.412Z,22.09
2023-04-24T10:21:00.945Z,22.09
2023-04-24T10:23:29.210Z,22.12
2023-04-24T10:25:56.905Z,22.12
2023-04-24T10:28:25.529Z,21.97
2023-04-24T10:30:55.992Z,22.04
2023-04-24T10:33:24.079Z,22.06
2023-04-24T10:35:52.147Z,22.03
2023-04-24T10:38:25.754Z,21.97
2023-04-24T10:40:58.798Z,21.89
2023-04-24T10:43:26.481Z,21.87
2023-04-24T10:46:04.376Z,21.74
2023-04-24T10:48:33.461Z,21.75
2023-04-24T10:51:00.902Z,21.66
2023-04-24T10:53:29.873Z,21.47
2023-04-24T10:56:08.676Z,21.53
2023-04-24T10:58:41.210Z,21.69
2023-04-24T11:01:09.079Z,21.63
2023-04-24T11:03:37.650Z,21.89
2023-04-24T11:06:06.483Z,21.93
2023-04-24T11:08:41.186Z,22.09
2023-04-24T11:11:15.740Z,22.27
2023-04-24T11:13:55.917Z,22.30
2023-04-24T11:16:35.701Z,22.17
2023-04-24T11:19:09.618Z,22.25
2023-04-24T11:21:48.198Z,22.38
2023-04-24T11:24:32.269Z,22.42
2023-04-24T11:27:05.375Z,22.46
2023-04-24T11:29:50.924Z,22.56
2023-04-24T11:32:28.820Z,22.39
2023-04-24T11:34:57.928Z,22.46
2023-04-24T11:37:28.003Z,22.67
2023-04-24T11:39:58.125Z,22.82
2023-04-24T11:42:26.619Z,23.05
2023-04-24T11:47:31.148Z,23.39
2023-04-24T11:49:59.815Z,23.39
2023-04-24T11:52:28.285Z,23.58
2023-04-24T11:54:55.800Z,23.55
2023-04-24T11:57:27.451Z,23.46
2023-04-24T11:59:55.026Z,23.40
2023-04-24T12:02:24.215Z,23.36
2023-04-24T12:04:53.048Z,23.39
2023-04-24T12:07:21.060Z,23.42
2023-04-24T12:09:52.540Z,23.34
2023-04-24T12:12:20.780Z,23.41
2023-04-24T12:14:53.928Z,23.39
2023-04-24T12:17:47.509Z,23.25
2023-04-24T12:20:15.777Z,23.20
2023-04-24T12:22:48.065Z,23.07
2023-04-24T12:25:16.156Z,23.04
2023-04-24T12:27:45.117Z,22.96
2023-04-24T12:30:15.136Z,22.78
2023-04-24T12:32:47.952Z,22.82
2023-04-24T12:35:21.426Z,22.78
2023-04-24T12:37:48.916Z,22.73
2023-04-24T12:40:17.793Z,22.80
2023-04-24T12:42:46.192Z,22.83
2023-04-24T12:45:14.496Z,22.93
2023-04-24T12:47:43.364Z,22.92
2023-04-24T12:50:12.122Z,22.99
2023-04-24T12:52:40.124Z,23.20
2023-04-24T12:55:11.298Z,23.12
2023-04-24T12:57:40.004Z,23.04
2023-04-24T13:00:08.994Z,22.87
2023-04-24T13:02:36.673Z,22.81
2023-04-24T13:05:04.474Z,22.80
2023-04-24T13:07:34.320Z,22.71
2023-04-24T13:10:01.810Z,22.52
2023-04-24T13:12:29.397Z,22.31
2023-04-24T13:14:57.206Z,22.02
2023-04-24T13:17:24.657Z,21.65
2023-04-24T13:19:52.630Z,21.28
2023-04-24T13:22:21.177Z,21.30
2023-04-24T13:24:51.821Z,21.33
2023-04-24T13:27:19.554Z,21.22
2023-04-24T13:29:47.595Z,20.96
2023-04-24T13:32:15.093Z,20.54
2023-04-24T13:34:42.787Z,20.46
2023-04-24T13:37:10.752Z,20.53
2023-04-24T13:39:38.291Z,20.24
2023-04-24T13:42:06.003Z,20.23
2023-04-24T13:44:33.805Z,20.22
2023-04-24T13:47:01.283Z,20.03
2023-04-24T13:49:28.736Z,19.92
2023-04-24T13:51:57.065Z,19.84
2023-04-24T13:54:26.861Z,19.79
2023-04-24T13:56:54.603Z,19.73
2023-04-24T13:59:22.722Z,19.66
2023-04-24T14:01:50.358Z,19.65
2023-04-24T14:04:18.375Z,19.57
2023-04-24T14:06:45.944Z,19.56
2023-04-24T14:09:13.901Z,19.63
2023-04-24T14:11:41.751Z,19.78
2023-04-24T14:14:09.298Z,19.66
2023-04-24T14:16:36.725Z,19.75
2023-04-24T14:19:05.978Z,19.95
2023-04-24T14:21:33.964Z,19.95
2023-04-24T14:24:01.658Z,20.01
2023-04-24T14:26:29.429Z,19.82
2023-04-24T14:29:07.185Z,20.00
2023-04-24T14:31:39.118Z,19.89
2023-04-24T14:34:06.551Z,19.42
2023-04-24T14:36:33.913Z,19.63
2023-04-24T14:39:04.350Z,19.49
2023-04-24T14:41:32.491Z,19.43
2023-04-24T14:43:59.875Z,19.36
2023-04-24T14:46:27.572Z,19.18
2023-04-24T14:48:55.001Z,18.95
2023-04-24T14:51:22.480Z,18.77
2023-04-24T14:53:50.262Z,18.85
2023-04-24T14:56:17.680Z,18.74
2023-04-24T14:58:45.167Z,18.64
2023-04-24T15:01:12.936Z,18.84
2023-04-24T15:03:40.560Z,18.50
2023-04-24T15:06:08.216Z,18.90
2023-04-24T15:08:35.900Z,18.88
2023-04-24T15:11:03.268Z,18.92
2023-04-24T15:13:30.742Z,19.08
2023-04-24T15:15:58.439Z,18.84
2023-04-24T15:18:25.997Z,19.04
2023-04-24T15:20:53.668Z,18.83
2023-04-24T15:23:21.440Z,18.99
2023-04-24T15:25:49.089Z,18.96
2023-04-24T15:28:17.223Z,19.07
2023-04-24T15:30:44.951Z,19.12
2023-04-24T15:33:12.467Z,18.95
2023-04-24T15:35:41.130Z,18.83
2023-04-24T15:38:09.013Z,18.82
2023-04-24T15:40:38.022Z,18.83
2023-04-24T15:43:05.588Z,18.94
2023-04-24T15:45:34.117Z,19.04
2023-04-24T15:48:01.732Z,18.92
2023-04-24T15:50:29.366Z,18.84
2023-04-24T15:52:57.236Z,18.90
2023-04-24T15:55:35.850Z,18.64
2023-04-24T15:58:05.362Z,18.66
2023-04-24T16:00:34.431Z,18.80
2023-04-24T16:03:08.452Z,18.57
2023-04-24T16:05:37.428Z,18.37
2023-04-24T16:08:05.226Z,18.37
2023-04-24T16:10:33.268Z,18.06
2023-04-24T16:13:02.632Z,18.03
2023-04-24T16:15:30.736Z,18.14
2023-04-24T16:17:58.590Z,17.94
2023-04-24T16:20:26.102Z,17.94
2023-04-24T16:22:53.812Z,18.01
2023-04-24T16:25:21.350Z,18.03
2023-04-24T16:27:50.941Z,17.94
2023-04-24T16:30:19.488Z,17.74
2023-04-24T16:32:47.063Z,17.90
2023-04-24T16:35:14.597Z,17.87
2023-04-24T16:37:42.476Z,17.96
2023-04-24T16:40:11.117Z,17.98
2023-04-24T16:42:39.632Z,18.01
2023-04-24T16:45:08.099Z,17.71
2023-04-24T16:47:36.178Z,17.68
2023-04-24T16:50:04.281Z,17.85
2023-04-24T16:52:32.031Z,17.76
2023-04-24T16:55:00.008Z,17.66
2023-04-24T16:57:27.550Z,17.82
2023-04-24T16:59:55.402Z,17.84
2023-04-24T17:02:22.868Z,17.47
2023-04-24T17:04:50.418Z,17.34
2023-04-24T17:07:18.142Z,17.42
2023-04-24T17:09:45.695Z,17.64
2023-04-24T17:12:13.080Z,17.74
2023-04-24T17:14:40.834Z,17.87
2023-04-24T17:17:08.253Z,17.65
2023-04-24T17:19:35.820Z,17.69
2023-04-24T17:22:06.317Z,17.72
2023-04-24T17:24:33.972Z,17.61
2023-04-24T17:27:07.985Z,17.76
2023-04-24T17:29:42.345Z,17.78
2023-04-24T17:32:09.941Z,17.71
2023-04-24T17:34:37.472Z,17.63
2023-04-24T17:37:05.155Z,17.61
2023-04-24T17:39:32.693Z,17.58
2023-04-24T17:42:01.118Z,17.42
2023-04-24T17:44:28.830Z,17.55
2023-04-24T17:46:56.414Z,17.43
2023-04-24T17:49:23.962Z,17.39
2023-04-24T17:51:51.711Z,17.22
2023-04-24T17:54:19.142Z,17.17
2023-04-24T17:56:46.587Z,17.23
2023-04-24T17:59:14.402Z,17.16
2023-04-24T18:01:42.618Z,16.90
2023-04-24T18:04:11.255Z,17.12
2023-04-24T18:06:39.784Z,17.09
2023-04-24T18:09:08.332Z,17.03
2023-04-24T18:11:36.046Z,17.08
2023-04-24T18:14:03.493Z,17.12
2023-04-24T18:16:30.920Z,17.04
2023-04-24T18:18:58.669Z,16.99
2023-04-24T18:21:26.491Z,16.90
2023-04-24T18:23:55.219Z,17.01
2023-04-24T18:26:22.938Z,16.88
2023-04-24T18:28:50.707Z,16.98
2023-04-24T18:31:18.319Z,16.85
2023-04-24T18:33:46.013Z,16.69
2023-04-24T18:36:13.484Z,16.81
2023-04-24T18:38:40.989Z,16.59
2023-04-24T18:41:08.784Z,16.57
2023-04-24T18:43:36.341Z,16.61
2023-04-24T18:46:03.878Z,16.55
2023-04-24T18:48:31.656Z,16.60
2023-04-24T18:51:00.069Z,16.73
2023-04-24T18:53:27.779Z,16.81
2023-04-24T18:55:55.956Z,16.80
2023-04-24T18:58:23.377Z,16.76
2023-04-24T19:00:51.044Z,16.79
2023-04-24T19:03:19.318Z,16.65
2023-04-24T19:05:47.119Z,16.77
2023-04-24T19:08:14.892Z,16.77
2023-04-24T19:10:42.910Z,16.95
2023-04-24T19:13:10.679Z,16.65
2023-04-24T19:15:38.167Z,16.58
2023-04-24T19:18:06.096Z,16.75
2023-04-24T19:20:33.634Z,16.68
2023-04-24T19:23:01.033Z,16.63
2023-04-24T19:25:28.839Z,16.66
2023-04-24T19:27:57.617Z,16.54
2023-04-24T19:30:25.208Z,16.65
2023-04-24T19:32:52.962Z,16.64
2023-04-24T19:35:20.751Z,16.76
2023-04-24T19:37:48.154Z,16.74
2023-04-24T19:40:15.996Z,16.74
2023-04-24T19:42:44.591Z,16.61
2023-04-24T19:45:13.009Z,16.71
2023-04-24T19:47:40.887Z,16.64
2023-04-24T19:50:09.188Z,16.78
2023-04-24T19:52:36.823Z,16.70
2023-04-24T19:55:04.880Z,16.63
2023-04-24T19:57:32.342Z,16.64
2023-04-24T20:00:00.029Z,16.73
2023-04-24T20:02:28.049Z,16.76
2023-04-24T20:04:56.165Z,16.53
2023-04-24T20:07:23.673Z,16.48
2023-04-24T20:09:51.192Z,16.56
2023-04-24T20:12:19.484Z,16.56
2023-04-24T20:14:47.928Z,16.65
2023-04-24T20:17:16.183Z,16.67
2023-04-24T20:19:44.181Z,16.69
2023-04-24T20:22:13.283Z,16.71
2023-04-24T20:24:41.117Z,16.62
2023-04-24T20:27:08.937Z,16.58
2023-04-24T20:29:36.447Z,16.49
2023-04-24T20:32:03.982Z,16.59
2023-04-24T20:34:31.699Z,16.58
2023-04-24T20:36:59.277Z,16.76
2023-04-24T20:39:26.726Z,16.69
2023-04-24T20:41:54.466Z,16.59
2023-04-24T20:44:22.296Z,16.67
2023-04-24T20:46:49.748Z,16.73
2023-04-24T20:49:17.476Z,16.78
2023-04-24T20:51:44.871Z,16.69
2023-04-24T20:54:12.330Z,16.71
2023-04-24T20:56:40.211Z,16.70
2023-04-24T20:59:07.606Z,16.61
2023-04-24T21:01:35.049Z,16.74
2023-04-24T21:04:03.427Z,16.70
2023-04-24T21:06:32.026Z,16.51
2023-04-24T21:08:59.489Z,16.62
2023-04-24T21:11:27.381Z,16.54
2023-04-24T21:13:54.796Z,16.54
2023-04-24T21:16:22.342Z,16.60
2023-04-24T21:18:50.059Z,16.63
2023-04-24T21:21:17.470Z,16.61
2023-04-24T21:23:44.851Z,16.56
2023-04-24T21:26:12.607Z,16.54
2023-04-24T21:28:40.558Z,16.52
2023-04-24T21:31:08.235Z,16.40
2023-04-24T21:33:35.950Z,16.44
2023-04-24T21:36:03.437Z,16.49
2023-04-24T21:38:31.021Z,16.56
2023-04-24T21:40:58.764Z,16.58
2023-04-24T21:43:37.223Z,16.59
2023-04-24T21:46:09.480Z,16.52
2023-04-24T21:48:36.927Z,16.41
2023-04-24T21:51:04.361Z,16.48
2023-04-24T21:53:32.034Z,16.50
2023-04-24T21:55:59.695Z,16.22
2023-04-24T21:58:27.100Z,16.19
2023-04-24T22:00:54.840Z,16.22
2023-04-24T22:03:22.727Z,16.25
2023-04-24T22:05:50.354Z,16.33
2023-04-24T22:08:17.824Z,16.14
2023-04-24T22:10:46.020Z,15.72
2023-04-24T22:13:13.541Z,15.82
2023-04-24T22:15:41.087Z,15.72
2023-04-24T22:18:09.327Z,15.82
2023-04-24T22:20:37.573Z,15.34
2023-04-24T22:23:04.984Z,15.20
2023-04-24T22:25:32.834Z,15.32
2023-04-24T22:28:00.234Z,15.30
2023-04-24T22:30:27.678Z,15.13
2023-04-24T22:32:55.408Z,15.26
2023-04-24T22:35:23.025Z,15.06
2023-04-24T22:37:56.591Z,14.78
2023-04-24T22:40:25.222Z,15.09
2023-04-24T22:42:52.962Z,14.78
2023-04-24T22:45:23.576Z,14.99
2023-04-24T22:47:51.600Z,14.93
2023-04-24T22:50:20.282Z,14.80
2023-04-24T22:52:47.765Z,14.79
2023-04-24T22:55:15.508Z,14.54
2023-04-24T22:57:42.969Z,14.57
2023-04-24T23:00:12.717Z,14.51
2023-04-24T23:02:41.249Z,14.57
2023-04-24T23:05:10.093Z,14.70
2023-04-24T23:10:06.938Z,14.47
2023-04-24T23:12:34.394Z,14.39
2023-04-24T23:15:01.872Z,14.23
2023-04-24T23:17:29.612Z,14.24
2023-04-24T23:19:57.097Z,14.26
2023-04-24T23:22:24.781Z,14.19
2023-04-24T23:24:52.436Z,14.41
2023-04-24T23:27:20.020Z,14.30
2023-04-24T23:29:47.505Z,14.38
2023-04-24T23:32:15.302Z,14.55
2023-04-24T23:34:42.711Z,14.67
2023-04-24T23:37:10.179Z,14.61
2023-04-24T23:39:37.932Z,14.73
2023-04-24T23:42:05.413Z,14.53
2023-04-24T23:44:32.862Z,14.59
2023-04-24T23:47:00.525Z,14.58
2023-04-24T23:49:27.938Z,14.44
2023-04-24T23:51:56.240Z,14.53
2023-04-24T23:54:24.069Z,14.43
2023-04-24T23:56:51.453Z,14.53
2023-04-24T23:59:21.497Z,14.33
